Terminal Aerodrome Forecast
Issued by NWS

Home | Current Version | Previous Version | Text Only | Print | Product List | Glossary On
Versions: 1 2 3 4 5 6 7 8 9 10 11 12 13 14
000
FTUS45 KRIW 221700
TAFRKS
TAF
KRKS 221725Z 2218/2318 26008KT P6SM VCFG SCT006 BKN013
     FM222000 27016G26KT P6SM VCSH SCT025 BKN040
     FM230100 27013KT P6SM SCT045 BKN060
     FM230500 25010KT P6SM BKN060
     FM231700 26014G20KT P6SM SCT070=

USA.gov is the U.S. government's official web portal to all federal, state and local government web resources and services.